createdAt,value
2019-02-04T00:01:13.834Z,13.87
2019-02-04T00:03:43.735Z,12.67
2019-02-04T00:06:15.094Z,12.07
2019-02-04T00:08:45.041Z,12.43
2019-02-04T00:11:15.025Z,10.93
2019-02-04T00:13:44.808Z,11.93
2019-02-04T00:16:15.793Z,10.60
2019-02-04T00:18:46.024Z,13.30
2019-02-04T00:21:15.875Z,10.67
2019-02-04T00:23:45.772Z,10.07
2019-02-04T00:26:17.693Z,11.43
2019-02-04T00:28:47.451Z,10.50
2019-02-04T00:31:17.200Z,10.70
2019-02-04T00:33:47.189Z,11.43
2019-02-04T00:36:18.038Z,12.93
2019-02-04T00:38:47.887Z,11.00
2019-02-04T00:41:17.912Z,13.47
2019-02-04T00:43:47.766Z,13.07
2019-02-04T00:46:20.004Z,12.43
2019-02-04T00:48:49.967Z,11.47
2019-02-04T00:51:19.845Z,11.30
2019-02-04T00:53:50.027Z,13.10
2019-02-04T00:56:23.698Z,13.13
2019-02-04T00:58:54.082Z,14.60
2019-02-04T01:01:23.949Z,15.20
2019-02-04T01:03:53.900Z,14.70
2019-02-04T01:06:25.890Z,10.17
2019-02-04T01:08:55.682Z,12.50
2019-02-04T01:11:26.023Z,12.97
2019-02-04T01:13:55.910Z,12.43
2019-02-04T01:16:26.876Z,12.40
2019-02-04T01:18:56.653Z,12.80
2019-02-04T01:21:26.728Z,12.50
2019-02-04T01:23:56.582Z,13.33
2019-02-04T01:26:27.555Z,11.53
2019-02-04T01:28:57.468Z,16.63
2019-02-04T01:31:27.354Z,14.93
2019-02-04T01:33:57.233Z,20.07
2019-02-04T01:36:28.285Z,15.67
2019-02-04T01:38:58.280Z,18.70
2019-02-04T01:41:47.684Z,16.90
2019-02-04T01:44:17.547Z,16.60
2019-02-04T01:46:51.534Z,16.50
2019-02-04T01:49:21.127Z,15.77
2019-02-04T01:51:51.132Z,15.67
2019-02-04T01:54:20.977Z,17.57
2019-02-04T01:56:52.128Z,13.53
2019-02-04T01:59:22.105Z,15.43
2019-02-04T02:01:52.428Z,15.10
2019-02-04T02:04:22.374Z,13.07
2019-02-04T02:06:53.520Z,13.37
2019-02-04T02:09:24.014Z,13.80
2019-02-04T02:11:53.944Z,11.80
2019-02-04T02:14:24.098Z,15.40
2019-02-04T02:16:55.140Z,13.50
2019-02-04T02:19:24.995Z,13.67
2019-02-04T02:22:14.348Z,14.23
2019-02-04T02:24:44.507Z,14.17
2019-02-04T02:27:15.504Z,14.07
2019-02-04T02:29:45.478Z,15.87
2019-02-04T02:32:15.466Z,14.37
2019-02-04T02:34:46.287Z,13.97
2019-02-04T02:37:28.617Z,13.20
2019-02-04T02:39:58.395Z,18.53
2019-02-04T02:42:28.430Z,12.47
2019-02-04T02:44:58.286Z,16.60
2019-02-04T02:47:38.092Z,14.50
2019-02-04T02:50:00.912Z,15.87
2019-02-04T02:52:30.917Z,13.43
2019-02-04T02:55:00.866Z,12.33
2019-02-04T02:57:31.988Z,16.67
2019-02-04T03:00:01.962Z,14.57
2019-02-04T03:02:32.498Z,12.83
2019-02-04T03:05:02.445Z,15.17
2019-02-04T03:07:35.828Z,15.70
2019-02-04T03:10:07.935Z,13.63
2019-02-04T03:12:37.987Z,14.60
2019-02-04T03:15:10.750Z,17.27
2019-02-04T03:17:51.428Z,15.83
2019-02-04T03:20:15.262Z,13.60
2019-02-04T03:22:45.155Z,16.17
2019-02-04T03:25:15.326Z,13.57
2019-02-04T03:28:04.853Z,17.13
2019-02-04T03:30:35.002Z,16.63
2019-02-04T03:33:05.096Z,15.43
2019-02-04T03:35:35.070Z,14.77
2019-02-04T03:38:04.915Z,17.80
2019-02-04T03:40:34.928Z,17.23
2019-02-04T03:43:04.859Z,18.80
2019-02-04T03:45:34.843Z,15.13
2019-02-04T03:48:08.479Z,22.83
2019-02-04T03:50:56.538Z,17.97
2019-02-04T03:53:27.714Z,15.20
2019-02-04T03:56:09.590Z,15.57
2019-02-04T03:58:39.399Z,15.70
2019-02-04T04:01:09.367Z,17.30
2019-02-04T04:03:39.246Z,13.47
2019-02-04T04:06:11.233Z,14.53
2019-02-04T04:08:40.997Z,13.40
2019-02-04T04:11:11.261Z,14.67
2019-02-04T04:13:41.334Z,14.87
2019-02-04T04:16:13.453Z,15.50
2019-02-04T04:18:43.421Z,13.40
2019-02-04T04:21:13.390Z,12.00
2019-02-04T04:23:43.376Z,12.90
2019-02-04T04:26:14.556Z,15.07
2019-02-04T04:28:44.507Z,14.17
2019-02-04T04:31:14.387Z,13.07
2019-02-04T04:33:57.057Z,14.23
2019-02-04T04:36:30.980Z,16.33
2019-02-04T04:39:00.745Z,15.33
2019-02-04T04:41:32.148Z,12.30
2019-02-04T04:44:02.015Z,12.97
2019-02-04T04:46:33.940Z,12.43
2019-02-04T04:49:05.144Z,12.07
2019-02-04T04:51:34.942Z,12.93
2019-02-04T04:54:04.868Z,13.23
2019-02-04T04:56:35.804Z,14.57
2019-02-04T04:59:05.559Z,13.47
2019-02-04T05:01:35.829Z,14.27
2019-02-04T05:04:05.702Z,15.63
2019-02-04T05:06:37.748Z,14.00
2019-02-04T05:09:07.633Z,12.90
2019-02-04T05:11:37.594Z,22.03
2019-02-04T05:14:07.499Z,15.67
2019-02-04T05:16:38.833Z,17.53
2019-02-04T05:19:08.709Z,16.83
2019-02-04T05:21:38.561Z,15.00
2019-02-04T05:24:08.330Z,18.90
2019-02-04T05:26:39.294Z,17.23
2019-02-04T05:29:09.214Z,17.27
2019-02-04T05:31:39.162Z,17.13
2019-02-04T05:34:09.045Z,17.30
2019-02-04T05:36:39.966Z,17.00
2019-02-04T05:39:09.769Z,21.63
2019-02-04T05:41:42.815Z,16.53
2019-02-04T05:44:11.547Z,18.23
2019-02-04T05:46:43.536Z,15.03
2019-02-04T05:49:14.340Z,19.17
2019-02-04T05:51:44.320Z,17.47
2019-02-04T05:54:14.599Z,17.87
2019-02-04T05:56:45.639Z,17.13
2019-02-04T05:59:15.478Z,17.20
2019-02-04T06:01:45.379Z,18.33
2019-02-04T06:04:15.352Z,18.03
2019-02-04T06:06:46.429Z,18.07
2019-02-04T06:09:16.423Z,19.20
2019-02-04T06:11:46.391Z,20.67
2019-02-04T06:14:16.294Z,21.60
2019-02-04T06:16:48.247Z,23.87
2019-02-04T06:19:18.119Z,19.90
2019-02-04T06:21:48.314Z,21.87
2019-02-04T06:24:18.308Z,26.97
2019-02-04T06:26:49.471Z,26.23
2019-02-04T06:29:19.414Z,23.73
2019-02-04T06:31:49.389Z,32.30
2019-02-04T06:34:33.455Z,29.20
2019-02-04T06:37:07.303Z,27.13
2019-02-04T06:39:37.168Z,29.23
2019-02-04T06:42:07.068Z,48.43
2019-02-04T06:44:37.339Z,35.57
2019-02-04T06:47:10.390Z,34.97
2019-02-04T06:49:41.312Z,30.27
2019-02-04T06:52:11.202Z,26.60
2019-02-04T06:54:41.151Z,27.73
2019-02-04T06:57:11.915Z,31.63
2019-02-04T06:59:41.807Z,29.53
2019-02-04T07:02:11.676Z,31.23
2019-02-04T07:04:41.515Z,28.83
2019-02-04T07:07:15.070Z,31.63
2019-02-04T07:09:43.801Z,29.63
2019-02-04T07:12:14.076Z,31.27
2019-02-04T07:14:44.122Z,179.77
2019-02-04T07:17:20.019Z,101.37
2019-02-04T07:19:49.994Z,50.53
2019-02-04T07:22:19.878Z,35.23
2019-02-04T07:25:06.386Z,31.80
2019-02-04T07:27:36.326Z,29.17
2019-02-04T07:30:09.401Z,29.57
2019-02-04T07:32:39.281Z,30.23
2019-02-04T07:35:30.440Z,31.97
2019-02-04T07:38:00.222Z,36.87
2019-02-04T07:40:32.366Z,33.00
2019-02-04T07:43:02.127Z,29.83
2019-02-04T07:45:32.410Z,35.87
2019-02-04T07:48:02.279Z,34.80
2019-02-04T07:50:32.312Z,34.20
2019-02-04T07:53:02.370Z,29.90
2019-02-04T07:55:32.356Z,32.07
2019-02-04T07:58:02.216Z,32.03
2019-02-04T08:00:33.719Z,43.07
2019-02-04T08:03:03.708Z,50.57
2019-02-04T08:05:33.685Z,40.67
2019-02-04T08:08:03.658Z,42.43
2019-02-04T08:10:33.668Z,35.20
2019-02-04T08:13:03.859Z,38.20
2019-02-04T08:15:36.089Z,37.00
2019-02-04T08:18:06.742Z,34.97
2019-02-04T08:20:36.641Z,40.67
2019-02-04T08:23:06.513Z,35.47
2019-02-04T08:25:36.387Z,39.33
2019-02-04T08:28:06.262Z,34.93
2019-02-04T08:30:38.161Z,39.97
2019-02-04T08:33:09.487Z,37.87
2019-02-04T08:35:39.378Z,38.57
2019-02-04T08:38:09.253Z,36.77
2019-02-04T08:40:39.443Z,33.13
2019-02-04T08:45:55.007Z,33.23
2019-02-04T08:48:24.960Z,39.70
2019-02-04T08:50:54.977Z,33.43
2019-02-04T08:53:24.930Z,36.30
2019-02-04T08:55:55.983Z,34.70
2019-02-04T08:58:26.054Z,33.50
2019-02-04T09:00:56.034Z,35.03
2019-02-04T09:03:26.095Z,35.83
2019-02-04T09:05:59.880Z,35.73
2019-02-04T09:08:29.971Z,31.40
2019-02-04T09:11:00.837Z,36.13
2019-02-04T09:13:42.880Z,32.30
2019-02-04T09:16:14.037Z,32.83
2019-02-04T09:18:45.054Z,30.97
2019-02-04T09:21:15.170Z,31.97
2019-02-04T09:23:45.041Z,33.13
2019-02-04T09:26:16.081Z,32.97
2019-02-04T09:28:45.939Z,33.97
2019-02-04T09:31:15.968Z,33.70
2019-02-04T09:33:45.849Z,31.97
2019-02-04T09:36:17.951Z,37.50
2019-02-04T09:38:47.925Z,34.57
2019-02-04T09:41:17.950Z,32.80
2019-02-04T09:43:47.918Z,31.10
2019-02-04T09:46:21.278Z,31.13
2019-02-04T09:48:51.642Z,28.98
2019-02-04T09:51:23.855Z,25.50
2019-02-04T09:53:55.529Z,26.73
2019-02-04T09:56:29.011Z,31.15
2019-02-04T09:58:59.557Z,28.55
2019-02-04T10:01:29.548Z,27.93
2019-02-04T10:03:59.611Z,27.27
2019-02-04T10:06:30.786Z,26.20
2019-02-04T10:09:00.768Z,28.83
2019-02-04T10:11:33.091Z,29.40
2019-02-04T10:14:03.433Z,29.95
2019-02-04T10:16:36.664Z,29.92
2019-02-04T10:19:06.628Z,29.60
2019-02-04T10:21:37.336Z,31.33
2019-02-04T10:24:07.531Z,29.20
2019-02-04T10:26:40.804Z,31.42
2019-02-04T10:29:11.352Z,29.55
2019-02-04T10:31:43.259Z,30.05
2019-02-04T10:34:13.826Z,31.07
2019-02-04T10:36:48.624Z,35.65
2019-02-04T10:39:18.642Z,40.38
2019-02-04T10:41:49.216Z,34.58
2019-02-04T10:44:19.144Z,38.77
2019-02-04T10:46:50.362Z,37.80
2019-02-04T10:49:20.702Z,39.20
2019-02-04T10:51:51.726Z,39.57
2019-02-04T10:54:21.773Z,43.70
2019-02-04T10:56:53.870Z,46.70
2019-02-04T10:59:23.866Z,41.23
2019-02-04T11:01:54.191Z,45.00
2019-02-04T11:04:24.197Z,42.80
2019-02-04T11:06:54.286Z,45.60
2019-02-04T11:09:40.874Z,42.93
2019-02-04T11:12:10.889Z,41.93
2019-02-04T11:14:41.220Z,41.23
2019-02-04T11:17:12.354Z,35.27
2019-02-04T11:19:42.245Z,36.50
2019-02-04T11:22:12.249Z,42.80
2019-02-04T11:24:42.112Z,41.67
2019-02-04T11:27:16.333Z,41.90
2019-02-04T11:29:46.208Z,39.20
2019-02-04T11:32:16.215Z,36.17
2019-02-04T11:34:48.981Z,38.83
2019-02-04T11:37:18.620Z,42.37
2019-02-04T11:39:48.720Z,45.50
2019-02-04T11:42:18.709Z,53.47
2019-02-04T11:44:48.673Z,52.37
2019-02-04T11:47:19.734Z,39.17
2019-02-04T11:49:49.583Z,38.57
2019-02-04T11:52:20.744Z,37.17
2019-02-04T11:54:50.706Z,37.63
2019-02-04T11:57:21.782Z,38.83
2019-02-04T11:59:51.644Z,44.43
2019-02-04T12:02:21.542Z,34.90
2019-02-04T12:04:51.502Z,37.17
2019-02-04T12:07:21.777Z,33.47
2019-02-04T12:09:51.754Z,37.53
2019-02-04T12:12:22.572Z,32.70
2019-02-04T12:14:53.139Z,39.33
2019-02-04T12:17:28.922Z,34.33
2019-02-04T12:19:59.479Z,36.70
2019-02-04T12:22:29.419Z,32.57
2019-02-04T12:25:05.589Z,32.60
2019-02-04T12:27:36.592Z,34.17
2019-02-04T12:30:09.928Z,36.73
2019-02-04T12:32:41.838Z,35.30
2019-02-04T12:35:14.017Z,27.10
2019-02-04T12:37:44.764Z,29.90
2019-02-04T12:40:16.242Z,35.50
2019-02-04T12:42:47.306Z,30.43
2019-02-04T12:45:32.442Z,33.47
2019-02-04T12:48:04.212Z,31.53
2019-02-04T12:50:34.483Z,34.87
2019-02-04T12:53:05.619Z,29.33
2019-02-04T12:55:35.482Z,29.97
2019-02-04T12:58:06.376Z,28.73
2019-02-04T13:00:36.436Z,15.30
2019-02-04T13:03:06.318Z,24.53
2019-02-04T13:05:52.444Z,18.47
2019-02-04T13:08:22.414Z,16.07
2019-02-04T13:10:52.280Z,15.60
2019-02-04T13:13:22.267Z,15.17
2019-02-04T13:15:53.291Z,18.47
2019-02-04T13:18:23.813Z,15.37
2019-02-04T13:20:53.679Z,12.23
2019-02-04T13:23:23.633Z,12.97
2019-02-04T13:25:59.389Z,16.07
2019-02-04T13:28:29.251Z,14.83
2019-02-04T13:30:59.010Z,12.53
2019-02-04T13:33:28.878Z,14.23
2019-02-04T13:35:59.844Z,14.00
2019-02-04T13:38:29.740Z,13.07
2019-02-04T13:41:07.612Z,15.17
2019-02-04T13:43:31.121Z,13.93
2019-02-04T13:46:05.794Z,12.43
2019-02-04T13:48:34.641Z,13.20
2019-02-04T13:51:04.598Z,14.97
2019-02-04T13:53:35.551Z,12.20
2019-02-04T13:56:07.550Z,12.97
2019-02-04T13:58:37.525Z,13.73
2019-02-04T14:01:09.471Z,15.90
2019-02-04T14:03:39.520Z,15.43
2019-02-04T14:06:12.703Z,16.70
2019-02-04T14:08:42.591Z,16.77
2019-02-04T14:11:12.593Z,15.30
2019-02-04T14:13:42.739Z,13.10
2019-02-04T14:16:13.618Z,14.33
2019-02-04T14:18:43.575Z,13.20
2019-02-04T14:21:13.579Z,13.97
2019-02-04T14:23:43.806Z,14.40
2019-02-04T14:26:14.780Z,10.07
2019-02-04T14:28:44.776Z,11.10
2019-02-04T14:31:14.651Z,9.70
2019-02-04T14:33:44.659Z,11.80
2019-02-04T14:36:16.660Z,15.97
2019-02-04T14:38:46.672Z,15.90
2019-02-04T14:41:16.561Z,17.17
2019-02-04T14:43:46.756Z,11.17
2019-02-04T14:46:25.846Z,14.37
2019-02-04T14:49:02.867Z,10.97
2019-02-04T14:52:03.446Z,11.90
2019-02-04T14:54:55.610Z,13.53
2019-02-04T14:57:34.586Z,11.83
2019-02-04T15:00:13.480Z,14.87
2019-02-04T15:03:21.279Z,15.23
2019-02-04T15:06:07.660Z,11.17
2019-02-04T15:08:57.233Z,13.10
2019-02-04T15:11:30.390Z,12.17
2019-02-04T15:14:24.466Z,8.13
2019-02-04T15:16:58.645Z,11.47
2019-02-04T15:19:49.967Z,11.70
2019-02-04T15:22:33.014Z,10.93
2019-02-04T15:25:09.242Z,8.50
2019-02-04T15:27:55.383Z,8.27
2019-02-04T15:30:46.357Z,7.70
2019-02-04T15:33:40.772Z,12.30
2019-02-04T15:36:23.167Z,6.97
2019-02-04T15:39:08.121Z,6.90
2019-02-04T15:41:41.641Z,6.67
2019-02-04T15:44:36.492Z,7.97
2019-02-04T15:47:18.875Z,7.93
2019-02-04T15:50:00.997Z,9.13
2019-02-04T15:52:31.940Z,6.73
2019-02-04T15:55:03.381Z,10.20
2019-02-04T15:57:34.259Z,13.90
2019-02-04T16:00:05.784Z,11.53
2019-02-04T16:02:35.787Z,10.40
2019-02-04T16:05:08.487Z,7.50
2019-02-04T16:07:40.780Z,12.93
2019-02-04T16:10:14.468Z,8.20
2019-02-04T16:12:47.587Z,6.60
2019-02-04T16:15:16.292Z,8.93
2019-02-04T16:17:47.292Z,7.47
2019-02-04T16:20:22.971Z,7.77
2019-02-04T16:22:58.568Z,7.80
2019-02-04T16:25:24.379Z,12.37
2019-02-04T16:27:55.359Z,11.87
2019-02-04T16:30:25.371Z,14.37
2019-02-04T16:32:55.715Z,8.23
2019-02-04T16:35:25.713Z,8.03
2019-02-04T16:37:55.592Z,10.90
2019-02-04T16:40:25.577Z,7.50
2019-02-04T16:42:55.461Z,7.27
2019-02-04T16:45:25.484Z,11.97
2019-02-04T16:47:55.478Z,11.33
2019-02-04T16:50:27.312Z,10.07
2019-02-04T16:53:08.649Z,12.63
2019-02-04T16:55:29.696Z,8.37
2019-02-04T16:57:59.589Z,14.37
2019-02-04T17:00:31.667Z,12.27
2019-02-04T17:03:01.673Z,12.03
2019-02-04T17:05:31.789Z,17.17
2019-02-04T17:08:01.780Z,12.10
2019-02-04T17:10:31.851Z,11.13
2019-02-04T17:13:01.763Z,16.37
2019-02-04T17:15:32.968Z,14.17
2019-02-04T17:18:02.960Z,14.30
2019-02-04T17:20:33.610Z,12.13
2019-02-04T17:23:03.523Z,16.47
2019-02-04T17:25:33.548Z,16.00
2019-02-04T17:28:03.951Z,20.23
2019-02-04T17:30:34.059Z,18.53
2019-02-04T17:33:03.971Z,16.93
2019-02-04T17:35:34.060Z,20.50
2019-02-04T17:38:04.287Z,11.57
2019-02-04T17:40:34.348Z,20.87
2019-02-04T17:43:04.239Z,17.90
2019-02-04T17:45:34.473Z,13.70
2019-02-04T17:48:04.489Z,15.27
2019-02-04T17:50:34.557Z,16.90
2019-02-04T17:53:04.457Z,14.83
2019-02-04T17:55:35.806Z,14.93
2019-02-04T17:58:05.820Z,11.80
2019-02-04T18:00:37.389Z,9.80
2019-02-04T18:03:07.584Z,14.70
2019-02-04T18:05:37.708Z,16.63
2019-02-04T18:08:07.924Z,15.40
2019-02-04T18:10:38.032Z,15.13
2019-02-04T18:13:07.920Z,13.90
2019-02-04T18:15:37.926Z,16.77
2019-02-04T18:18:07.813Z,15.00
2019-02-04T18:20:37.905Z,18.33
2019-02-04T18:23:11.101Z,19.33
2019-02-04T18:25:39.722Z,18.27
2019-02-04T18:28:09.637Z,13.73
2019-02-04T18:30:39.651Z,15.67
2019-02-04T18:33:09.554Z,20.10
2019-02-04T18:35:39.969Z,17.43
2019-02-04T18:38:09.889Z,19.20
2019-02-04T18:40:40.016Z,15.90
2019-02-04T18:43:09.926Z,21.00
2019-02-04T18:45:39.951Z,16.90
2019-02-04T18:48:09.855Z,21.50
2019-02-04T18:50:40.386Z,25.50
2019-02-04T18:53:10.492Z,29.23
2019-02-04T18:55:41.665Z,88.20
2019-02-04T18:58:11.628Z,38.30
2019-02-04T19:00:41.745Z,23.03
2019-02-04T19:03:17.322Z,27.33
2019-02-04T19:05:43.401Z,29.20
2019-02-04T19:08:13.507Z,23.07
2019-02-04T19:10:43.566Z,29.40
2019-02-04T19:13:35.414Z,40.30
2019-02-04T19:15:56.525Z,36.03
2019-02-04T19:18:26.429Z,31.87
2019-02-04T19:20:56.506Z,36.83
2019-02-04T19:23:27.074Z,31.70
2019-02-04T19:25:57.275Z,27.60
2019-02-04T19:28:27.252Z,38.13
2019-02-04T19:31:00.487Z,30.27
2019-02-04T19:33:30.662Z,25.47
2019-02-04T19:36:01.807Z,36.93
2019-02-04T19:38:31.721Z,53.43
2019-02-04T19:41:02.033Z,87.97
2019-02-04T19:43:32.004Z,67.17
2019-02-04T19:46:04.139Z,32.20
2019-02-04T19:48:34.269Z,97.43
2019-02-04T19:51:04.405Z,70.03
2019-02-04T19:53:34.896Z,48.80
2019-02-04T19:56:10.240Z,35.67
2019-02-04T19:58:40.147Z,42.70
2019-02-04T20:01:12.716Z,31.57
2019-02-04T20:03:42.909Z,33.67
2019-02-04T20:06:14.440Z,29.43
2019-02-04T20:09:07.027Z,26.77
2019-02-04T20:11:38.605Z,42.70
2019-02-04T20:14:29.598Z,99.40
2019-02-04T20:17:01.361Z,46.87
2019-02-04T20:19:31.287Z,34.63
2019-02-04T20:22:01.391Z,32.97
2019-02-04T20:24:33.370Z,30.50
2019-02-04T20:27:05.134Z,29.10
2019-02-04T20:29:35.138Z,30.93
2019-02-04T20:32:05.268Z,32.97
2019-02-04T20:34:36.302Z,44.57
2019-02-04T20:37:09.221Z,36.80
2019-02-04T20:39:39.814Z,33.93
2019-02-04T20:42:09.968Z,39.03
2019-02-04T20:44:39.887Z,33.37
2019-02-04T20:47:11.215Z,30.67
2019-02-04T20:49:41.304Z,45.13
2019-02-04T20:52:11.530Z,28.87
2019-02-04T20:54:44.969Z,27.90
2019-02-04T20:57:14.461Z,25.73
2019-02-04T20:59:44.456Z,30.03
2019-02-04T21:02:15.221Z,33.57
2019-02-04T21:04:45.114Z,27.50
2019-02-04T21:07:16.464Z,29.03
2019-02-04T21:09:46.507Z,33.20
2019-02-04T21:12:16.646Z,30.73
2019-02-04T21:14:46.634Z,29.13
2019-02-04T21:17:19.926Z,30.93
2019-02-04T21:19:51.139Z,30.73
2019-02-04T21:22:21.252Z,32.47
2019-02-04T21:24:56.394Z,28.07
2019-02-04T21:27:24.898Z,32.60
2019-02-04T21:29:55.216Z,32.53
2019-02-04T21:32:25.671Z,33.37
2019-02-04T21:34:55.866Z,30.60
2019-02-04T21:37:27.116Z,31.47
2019-02-04T21:39:57.119Z,31.17
2019-02-04T21:42:27.222Z,30.60
2019-02-04T21:44:57.234Z,29.77
2019-02-04T21:47:28.495Z,27.33
2019-02-04T21:50:00.110Z,33.13
2019-02-04T21:52:31.365Z,33.07
2019-02-04T21:55:08.147Z,29.53
2019-02-04T21:57:45.374Z,32.13
2019-02-04T22:00:21.033Z,32.47
2019-02-04T22:02:51.860Z,139.77
2019-02-04T22:05:24.238Z,66.10
2019-02-04T22:07:54.364Z,37.33
2019-02-04T22:10:26.021Z,35.40
2019-02-04T22:12:58.500Z,47.00
2019-02-04T22:15:29.595Z,36.13
2019-02-04T22:18:00.690Z,36.63
2019-02-04T22:20:30.801Z,29.57
2019-02-04T22:23:00.857Z,32.50
2019-02-04T22:25:31.350Z,32.93
2019-02-04T22:28:02.418Z,27.83
2019-02-04T22:30:32.374Z,27.87
2019-02-04T22:33:02.321Z,32.27
2019-02-04T22:35:33.322Z,26.13
2019-02-04T22:38:04.827Z,28.23
2019-02-04T22:40:34.713Z,38.23
2019-02-04T22:43:16.945Z,31.97
2019-02-04T22:45:46.948Z,29.77
2019-02-04T22:48:24.060Z,29.10
2019-02-04T22:50:56.678Z,27.20
2019-02-04T22:53:26.749Z,28.23
2019-02-04T22:55:56.706Z,28.73
2019-02-04T22:58:27.784Z,28.60
2019-02-04T23:01:09.743Z,31.20
2019-02-04T23:03:51.801Z,34.47
2019-02-04T23:06:22.985Z,25.77
2019-02-04T23:08:52.996Z,29.47
2019-02-04T23:11:23.212Z,29.17
2019-02-04T23:13:53.247Z,33.43
2019-02-04T23:16:24.429Z,27.17
2019-02-04T23:18:54.482Z,27.47
2019-02-04T23:21:24.388Z,30.00
2019-02-04T23:23:55.979Z,26.07
2019-02-04T23:26:27.041Z,30.47
2019-02-04T23:28:57.233Z,25.97
2019-02-04T23:31:27.135Z,26.20
2019-02-04T23:33:58.129Z,26.57
2019-02-04T23:36:31.355Z,29.57
2019-02-04T23:39:01.367Z,28.40
2019-02-04T23:41:32.801Z,35.37
2019-02-04T23:44:02.815Z,36.87
2019-02-04T23:46:33.804Z,36.30
2019-02-04T23:49:03.807Z,33.50
2019-02-04T23:51:33.710Z,37.20
2019-02-04T23:54:03.762Z,42.63
2019-02-04T23:56:37.139Z,39.20
2019-02-04T23:59:07.146Z,34.83
